Jacksonport, Wisconsin
Current Conditions -  °F | °C
As of 3:15 PM on Thursday 20 Nov 2014 (Local Time) from KSUE Reporting Station
Overcast Overcast  
Wind Chill:   Ceiling: 4100
Heat Index: 18°   Visibility: 10mi
Dew Point:   Wind: 13mph
Humidity: 49%   Direction: 300°WNW
Pressure: 29.98"   Gusts: NA
Location:  44.7888°N, 87.4464°W
Report Text: KSUE 202115Z AUTO 30011KT 10SM BKN041 BKN049 OVC060 M08/M17 A2998 RMK AO1
Loading
Personal Weather Stations






























Interactive Weather Map New forecast layout! Learn more

10-Day Weather Forecast

Advertisements
Track Severe Weather on mobile